»·PEaware :: N80991 KSNA-KPSP

N80991 :: KSNA-KPSP

FLIGHT INFORMATION

Flight Status: Arrived
Operator: Privately registered:
United States
More flights under this callsign
Pilot: Drew Leevy (13237)
Aircraft: CESSNA 172 SKYHAWK
(C172)
More flights by this aircraft type
Origin: KSNA John Wayne-Orange Co
United States
Destination: KPSP Palm Springs Intl
United States
More flights between these airports :: More routes between these airports
Route: +
File this flight plan on PilotEdge
Remarks:
Altitude:
(Current/Filed)
0ft
Speed:
(Current/Filed)
0kts
Departed: 30-Apr-17 08:48 PM
Arrived: 30-Apr-17 09:42 PM
Distance/Time
Traveled:
69nm/0:54
Distance/Time
To Go:
Arrived

Flight Plot

Page will automatically refresh every two minutes.


Map Options




Map Legend


Flown Route
Filed Route
Departure Airport
Arrival Airport
Navaid (VOR, NDB)
Fix

Horizontal Profiles

Position Reports

Time Latitude Longitude Heading Altitude Ground
Speed
30-Apr-17 20:49 33.645203 -117.903959 314 1143ft 104kts
30-Apr-17 20:50 33.673847 -117.900317 31 1477ft 121kts
30-Apr-17 20:51 33.690209 -117.869203 89 1442ft 115kts
30-Apr-17 20:52 33.672403 -117.870894 209 60ft 100kts
30-Apr-17 20:53 33.653033 -117.864649 89 903ft 101kts
30-Apr-17 20:54 33.652820 -117.831315 92 1465ft 116kts
30-Apr-17 20:55 33.652406 -117.793352 92 1461ft 115kts
30-Apr-17 20:56 33.651699 -117.763165 67 2526ft 72kts
30-Apr-17 20:57 33.659104 -117.737580 66 3248ft 90kts
30-Apr-17 20:58 33.665817 -117.707412 66 4017ft 98kts
30-Apr-17 20:59 33.670916 -117.675701 66 4763ft 97kts
30-Apr-17 21:00 33.675769 -117.644516 66 5484ft 99kts
30-Apr-17 21:01 33.682631 -117.607492 66 5547ft 125kts
30-Apr-17 21:02 33.693017 -117.567664 67 5573ft 129kts
30-Apr-17 21:03 33.691353 -117.524064 90 5572ft 134kts
30-Apr-17 21:04 33.702026 -117.482963 66 5584ft 133kts
30-Apr-17 21:05 33.714556 -117.442257 65 5572ft 130kts
30-Apr-17 21:06 33.725412 -117.401177 69 5573ft 131kts
30-Apr-17 21:07 33.722807 -117.357424 101 5576ft 138kts
30-Apr-17 21:08 33.711460 -117.314957 107 5575ft 136kts
30-Apr-17 21:09 33.700697 -117.272292 94 5572ft 134kts
30-Apr-17 21:10 33.697702 -117.228163 87 5588ft 136kts
30-Apr-17 21:11 33.697635 -117.183695 86 5572ft 133kts
30-Apr-17 21:12 33.697564 -117.139720 86 5574ft 133kts
30-Apr-17 21:13 33.697498 -117.095776 86 5581ft 134kts
30-Apr-17 21:14 33.698951 -117.052038 87 5579ft 132kts
30-Apr-17 21:15 33.702745 -117.009018 82 5586ft 132kts
30-Apr-17 21:16 33.703236 -116.967747 86 5470ft 140kts
30-Apr-17 21:17 33.700535 -116.922362 85 5473ft 137kts
30-Apr-17 21:18 33.697478 -116.877059 90 5463ft 137kts
30-Apr-17 21:19 33.693388 -116.831208 90 5463ft 139kts
30-Apr-17 21:20 33.689355 -116.785266 90 5466ft 140kts
30-Apr-17 21:21 33.672923 -116.743509 126 5463ft 144kts
30-Apr-17 21:22 33.659130 -116.700108 100 5491ft 141kts
30-Apr-17 21:23 33.648532 -116.654463 101 5464ft 143kts
30-Apr-17 21:24 33.643173 -116.612802 85 6073ft 114kts
30-Apr-17 21:25 33.649825 -116.580887 54 6784ft 94kts
30-Apr-17 21:26 33.656224 -116.551024 70 7296ft 92kts
30-Apr-17 21:27 33.665886 -116.524856 52 6922ft 123kts
30-Apr-17 21:28 33.683373 -116.485985 52 6155ft 127kts
30-Apr-17 21:29 33.699785 -116.451317 51 5405ft 115kts
30-Apr-17 21:30 33.713652 -116.421228 47 4684ft 100kts
30-Apr-17 21:31 33.732383 -116.419265 317 3865ft 116kts
30-Apr-17 21:32 33.760346 -116.446748 322 2611ft 139kts
30-Apr-17 21:33 33.791544 -116.473281 323 1345ft 136kts
30-Apr-17 21:34 33.812822 -116.494373 320 2088ft 78kts
30-Apr-17 21:35 33.830195 -116.493332 74 2499ft 127kts
30-Apr-17 21:36 33.822669 -116.451600 120 2519ft 133kts
30-Apr-17 21:37 33.803401 -116.415539 115 2883ft 129kts
30-Apr-17 21:38 33.786759 -116.378750 112 3208ft 123kts
30-Apr-17 21:39 33.770204 -116.395345 267 2664ft 116kts
30-Apr-17 21:40 33.768233 -116.431451 275 2524ft 115kts
30-Apr-17 21:41 33.781537 -116.463377 330 1861ft 101kts
30-Apr-17 21:42 33.801971 -116.480138 324 1244ft 94kts
30-Apr-17 21:43 33.819339 -116.495546 324 643ft 49kts
30-Apr-17 21:44 33.828208 -116.503477 324 481ft 24kts
30-Apr-17 21:45 33.828573 -116.502837 144 481ft 15kts
30-Apr-17 21:46 33.826511 -116.499889 147 481ft 0kts
30-Apr-17 21:47 33.826511 -116.499889 147 481ft 0kts
30-Apr-17 21:48 33.826511 -116.499889 147 481ft 0kts
30-Apr-17 21:49 33.826511 -116.499889 147 481ft 0kts
30-Apr-17 21:50 33.826511 -116.499889 147 481ft 0kts
30-Apr-17 21:51 33.826511 -116.499889 147 481ft 0kts
30-Apr-17 21:52 33.826511 -116.499889 147 481ft 0kts

Navigation Log

Ident Type
1. KSNA Airport
2. KPSP Airport